createdAt,value
2022-11-23T00:04:07.377Z,48.20
2022-11-23T00:09:11.623Z,37.73
2022-11-23T00:14:14.398Z,43.40
2022-11-23T00:19:17.269Z,33.00
2022-11-23T00:24:20.279Z,31.53
2022-11-23T00:29:23.080Z,33.37
2022-11-23T05:33:18.564Z,30.13
2022-11-23T05:38:21.768Z,36.30
2022-11-23T05:43:24.902Z,33.13
2022-11-23T05:48:28.516Z,29.37
2022-11-23T05:53:31.922Z,29.87
2022-11-23T05:58:35.142Z,34.60
2022-11-23T06:03:38.358Z,31.17
2022-11-23T06:08:44.429Z,30.13
2022-11-23T06:13:50.126Z,34.77
2022-11-23T06:18:53.548Z,32.70
2022-11-23T06:23:56.658Z,39.87
2022-11-23T06:28:59.775Z,33.97
2022-11-23T06:34:03.005Z,35.63
2022-11-23T06:39:06.357Z,33.20
2022-11-23T06:44:09.662Z,31.67
2022-11-23T06:49:12.990Z,37.70
2022-11-23T06:54:16.153Z,36.80
2022-11-23T06:59:19.343Z,37.90
2022-11-23T07:04:22.582Z,35.33
2022-11-23T07:09:25.703Z,34.47
2022-11-23T07:14:29.022Z,31.33
2022-11-23T07:19:32.549Z,32.87
2022-11-23T07:24:40.508Z,33.83
2022-11-23T07:29:45.873Z,29.60
2022-11-23T07:34:49.066Z,37.53
2022-11-23T07:39:57.769Z,37.83
2022-11-23T07:45:01.533Z,37.40
2022-11-23T07:50:10.068Z,43.87
2022-11-23T07:55:13.226Z,36.63
2022-11-23T08:00:16.993Z,33.83
2022-11-23T08:05:20.208Z,37.50
2022-11-23T08:10:23.457Z,31.83
2022-11-23T08:15:30.463Z,33.80
2022-11-23T08:20:33.918Z,35.00
2022-11-23T08:25:37.046Z,30.37
2022-11-23T08:30:40.645Z,39.93
2022-11-23T08:35:44.062Z,36.03
2022-11-23T08:40:47.589Z,29.40
2022-11-23T08:45:50.721Z,29.37
2022-11-23T08:50:54.201Z,25.63
2022-11-23T08:56:00.402Z,28.13
2022-11-23T09:01:07.855Z,26.47
2022-11-23T09:06:11.568Z,27.87
2022-11-23T09:11:14.996Z,27.37
2022-11-23T09:16:18.230Z,31.57
2022-11-23T09:21:21.527Z,31.60
2022-11-23T09:26:25.397Z,31.00
2022-11-23T09:31:29.068Z,29.83
2022-11-23T09:36:32.379Z,30.70
2022-11-23T09:42:00.699Z,27.57
2022-11-23T09:47:07.578Z,32.77
2022-11-23T09:52:17.439Z,22.97
2022-11-23T09:57:25.035Z,20.70
2022-11-23T10:02:29.171Z,21.73
2022-11-23T10:08:01.271Z,22.03
2022-11-23T10:13:29.743Z,18.97
2022-11-23T10:18:44.879Z,21.10
2022-11-23T10:23:50.911Z,22.50
2022-11-23T10:28:55.292Z,18.33
2022-11-23T10:34:23.855Z,17.53
2022-11-23T10:39:28.302Z,22.40
2022-11-23T10:44:43.193Z,20.87
2022-11-23T10:49:58.534Z,18.53
2022-11-23T10:55:05.483Z,17.10
2022-11-23T11:00:14.832Z,19.13
2022-11-23T11:11:00.500Z,16.63
2022-11-23T11:16:06.621Z,19.80
2022-11-23T11:21:24.647Z,18.30
2022-11-23T11:26:29.831Z,20.23
2022-11-23T11:31:57.180Z,22.10
2022-11-23T11:37:29.870Z,18.83
2022-11-23T11:43:03.425Z,20.00
2022-11-23T11:48:15.182Z,19.97
2022-11-23T11:53:24.602Z,20.57
2022-11-23T11:58:28.238Z,21.33
2022-11-23T12:03:53.058Z,20.80
2022-11-23T12:09:19.102Z,20.97
2022-11-23T12:14:22.585Z,21.70
2022-11-23T12:19:59.742Z,21.73
2022-11-23T12:25:11.705Z,20.87
2022-11-23T12:30:26.208Z,17.20
2022-11-23T12:35:44.860Z,22.83
2022-11-23T12:41:03.036Z,20.23
2022-11-23T12:46:12.393Z,22.00
2022-11-23T12:51:25.507Z,22.73
2022-11-23T12:56:53.108Z,20.57
2022-11-23T13:02:05.577Z,19.73
2022-11-23T13:07:31.396Z,20.97
2022-11-23T13:12:57.706Z,22.03
2022-11-23T13:18:15.386Z,22.67
2022-11-23T13:23:22.160Z,22.10
2022-11-23T13:28:32.333Z,22.13
2022-11-23T13:33:39.072Z,22.83
2022-11-23T13:38:45.474Z,25.87
2022-11-23T13:43:48.735Z,22.30
2022-11-23T13:48:57.584Z,26.30
2022-11-23T13:54:21.517Z,28.13
2022-11-23T13:59:24.633Z,25.87
2022-11-23T14:04:33.235Z,21.30
2022-11-23T14:10:08.335Z,29.67
2022-11-23T14:15:23.486Z,20.40
2022-11-23T14:20:41.610Z,20.33
2022-11-23T14:26:05.183Z,19.57
2022-11-23T14:38:44.873Z,25.77
2022-11-23T14:43:49.236Z,43.47
2022-11-23T14:48:57.009Z,75.10
2022-11-23T14:54:03.443Z,33.80
2022-11-23T14:59:21.288Z,24.20
2022-11-23T15:04:34.941Z,26.77
2022-11-23T15:10:06.474Z,30.43
2022-11-23T15:15:22.967Z,23.17
2022-11-23T15:20:34.069Z,26.73
2022-11-23T15:25:37.064Z,23.07
2022-11-23T15:30:40.122Z,27.70
2022-11-23T15:35:43.389Z,25.77
2022-11-23T15:40:49.387Z,26.73
2022-11-23T15:45:52.363Z,33.13
2022-11-23T15:51:08.537Z,31.63
2022-11-23T15:56:35.825Z,26.00
2022-11-23T16:01:39.379Z,28.80
2022-11-23T16:06:48.075Z,32.50
2022-11-23T16:11:51.463Z,29.27
2022-11-23T16:17:06.472Z,28.93
2022-11-23T16:22:25.827Z,32.97
2022-11-23T16:27:29.131Z,22.17
2022-11-23T16:32:32.850Z,23.07
2022-11-23T16:37:35.933Z,21.23
2022-11-23T16:42:38.870Z,21.97
2022-11-23T16:48:02.902Z,21.60
2022-11-23T16:53:16.291Z,22.97
2022-11-23T16:58:20.077Z,23.10
2022-11-23T17:03:24.278Z,22.37
2022-11-23T17:08:27.419Z,26.73
2022-11-23T17:13:30.462Z,23.57
2022-11-23T17:18:33.507Z,24.97
2022-11-23T17:23:36.636Z,21.87
2022-11-23T17:28:39.629Z,23.57
2022-11-23T17:33:42.494Z,28.23
2022-11-23T17:38:47.500Z,26.50
2022-11-23T17:43:50.445Z,28.73
2022-11-23T17:48:59.011Z,30.30
2022-11-23T17:54:01.974Z,32.37
2022-11-23T17:59:06.971Z,29.90
2022-11-23T18:04:10.222Z,40.77
2022-11-23T18:09:13.288Z,48.63
2022-11-23T18:14:18.257Z,34.23
2022-11-23T18:19:21.390Z,26.87
2022-11-23T18:24:24.528Z,27.30
2022-11-23T18:29:27.579Z,26.60
2022-11-23T18:34:30.702Z,35.00
2022-11-23T18:39:34.162Z,28.13
2022-11-23T18:44:37.393Z,47.30
2022-11-23T18:49:40.432Z,28.40
2022-11-23T18:54:43.518Z,30.97
2022-11-23T19:00:02.280Z,42.13
2022-11-23T19:05:06.310Z,27.93
2022-11-23T19:10:09.719Z,26.83
2022-11-23T19:15:13.011Z,27.27
2022-11-23T19:20:19.416Z,27.27
2022-11-23T19:25:22.405Z,34.40
2022-11-23T19:30:25.406Z,22.47
2022-11-23T19:35:28.372Z,35.37
2022-11-23T19:40:31.350Z,26.93
2022-11-23T19:45:34.382Z,40.47
2022-11-23T19:50:37.371Z,30.00
2022-11-23T19:55:40.283Z,28.40
2022-11-23T20:00:46.165Z,19.77
2022-11-23T20:06:01.942Z,25.57
2022-11-23T20:11:17.312Z,25.00
2022-11-23T20:16:22.021Z,21.37
2022-11-23T20:21:26.224Z,26.10
2022-11-23T20:26:30.096Z,24.17
2022-11-23T20:31:34.145Z,27.07
2022-11-23T20:36:38.464Z,24.90
2022-11-23T20:41:43.075Z,31.10
2022-11-23T20:47:01.437Z,27.50
2022-11-23T20:52:05.523Z,24.10
2022-11-23T20:57:09.154Z,30.53
2022-11-23T21:02:12.571Z,26.20
2022-11-23T21:07:15.611Z,26.40
2022-11-23T21:12:37.379Z,29.37
2022-11-23T21:17:40.462Z,27.63
2022-11-23T21:22:43.393Z,26.17
2022-11-23T21:27:46.266Z,27.47
2022-11-23T21:32:52.435Z,23.43
2022-11-23T21:37:55.490Z,26.13
2022-11-23T21:42:58.751Z,26.57
2022-11-23T21:48:01.679Z,27.10
2022-11-23T21:53:04.612Z,32.33
2022-11-23T21:58:07.709Z,30.77
2022-11-23T22:03:12.101Z,30.00
2022-11-23T22:08:28.815Z,29.23
2022-11-23T22:13:36.748Z,24.77
2022-11-23T22:18:40.338Z,26.57
2022-11-23T22:23:43.788Z,24.10
2022-11-23T22:28:51.621Z,28.17
2022-11-23T22:33:54.852Z,22.70
2022-11-23T22:39:04.903Z,24.23
2022-11-23T22:44:10.685Z,24.33
2022-11-23T22:49:13.900Z,27.07
2022-11-23T22:54:16.988Z,26.33
2022-11-23T22:59:20.130Z,24.83
2022-11-23T23:04:23.409Z,23.83
2022-11-23T23:09:26.655Z,28.87
2022-11-23T23:14:29.783Z,26.80
2022-11-23T23:19:33.018Z,28.10
2022-11-23T23:24:36.492Z,25.90
2022-11-23T23:29:39.790Z,24.57
2022-11-23T23:34:42.883Z,29.37
2022-11-23T23:39:46.158Z,26.33
2022-11-23T23:44:49.268Z,24.37
2022-11-23T23:49:53.556Z,27.20
2022-11-23T23:54:56.756Z,26.50
2022-11-23T23:59:59.903Z,24.07
